Time;durP1;ratioP1;P1;durP2;ratioP2;P2;SDS_P1;SDS_P2;PMS_P1;PMS_P2;Temp;Humidity;BMP_temperature;BMP_pressure;BME280_temperature;BME280_humidity;BME280_pressure;Samples;Min_cycle;Max_cycle;Signal;HPM_P1;HPM_P2
2023/06/03 00:00:32;;;;;;;0.15;0.10;;;13.00;99.90;;;;;;7403488;19;19918;-71
2023/06/03 00:03:01;;;;;;;0.10;0.10;;;13.00;99.90;;;;;;7405148;19;19911;-70
2023/06/03 00:05:30;;;;;;;0.05;0.05;;;13.10;99.90;;;;;;7403194;19;19925;-71
2023/06/03 00:07:59;;;;;;;0.13;0.10;;;13.00;99.90;;;;;;7405318;19;19974;-71
2023/06/03 00:10:30;;;;;;;0.17;0.10;;;12.90;99.90;;;;;;7404067;19;20591;-71
2023/06/03 00:12:59;;;;;;;0.38;0.20;;;12.90;99.90;;;;;;7403545;19;19919;-71
2023/06/03 00:15:29;;;;;;;0.30;0.17;;;12.90;99.90;;;;;;7401621;19;19918;-71
2023/06/03 00:17:58;;;;;;;0.40;0.17;;;12.90;99.90;;;;;;7404971;19;20014;-71
2023/06/03 00:20:28;;;;;;;0.50;0.30;;;12.80;99.90;;;;;;7403275;19;19929;-71
2023/06/03 00:22:57;;;;;;;1.70;0.90;;;12.80;99.90;;;;;;7404678;19;20395;-71
2023/06/03 00:25:26;;;;;;;2.08;1.77;;;11.90;99.90;;;;;;7402953;19;19907;-71
2023/06/03 00:27:57;;;;;;;2.47;1.77;;;12.60;99.90;;;;;;7404271;19;20333;-71
2023/06/03 00:30:26;;;;;;;2.67;2.08;;;12.60;99.90;;;;;;7403184;19;19935;-71
2023/06/03 00:32:55;;;;;;;4.07;3.33;;;12.50;99.90;;;;;;7404045;19;19982;-70
2023/06/03 00:35:24;;;;;;;4.38;3.80;;;12.50;99.90;;;;;;7401983;19;19919;-71
2023/06/03 00:37:53;;;;;;;2.53;2.33;;;12.70;99.90;;;;;;7404082;19;20287;-70
2023/06/03 00:40:22;;;;;;;2.00;1.52;;;12.60;99.90;;;;;;7402359;19;19911;-71
2023/06/03 00:42:51;;;;;;;2.10;1.60;;;12.50;99.90;;;;;;7403443;19;19992;-71
2023/06/03 00:45:22;;;;;;;0.55;0.55;;;12.30;99.90;;;;;;7401152;19;19932;-71
2023/06/03 00:47:52;;;;;;;1.02;0.40;;;12.40;99.90;;;;;;7403826;19;20335;-71
2023/06/03 00:50:21;;;;;;;0.85;0.65;;;12.40;99.90;;;;;;7402869;19;20389;-71
2023/06/03 00:52:50;;;;;;;0.98;0.82;;;12.30;99.90;;;;;;7400697;19;20335;-71
2023/06/03 00:55:20;;;;;;;1.45;0.90;;;12.30;99.90;;;;;;7401314;19;19927;-71
2023/06/03 00:57:49;;;;;;;0.60;0.60;;;12.20;99.90;;;;;;7402023;19;19931;-71
2023/06/03 01:00:18;;;;;;;0.80;0.63;;;12.30;99.90;;;;;;7402525;19;19919;-72
2023/06/03 01:02:50;;;;;;;0.60;0.47;;;12.10;99.90;;;;;;7403008;19;20384;-72
2023/06/03 01:05:19;;;;;;;0.40;0.28;;;12.10;99.90;;;;;;7402137;19;19915;-70
2023/06/03 01:07:56;;;;;;;1.52;0.40;;;12.00;99.90;;;;;;7407362;19;19915;-71
2023/06/03 01:10:34;;;;;;;0.57;0.38;;;12.10;99.90;;;;;;7409355;19;19982;-71
2023/06/03 01:13:10;;;;;;;1.48;0.70;;;12.20;99.90;;;;;;7407904;19;19921;-70
2023/06/03 01:15:44;;;;;;;0.90;0.50;;;12.10;99.90;;;;;;7407378;19;20252;-71
2023/06/03 01:18:18;;;;;;;0.60;0.40;;;11.90;99.90;;;;;;7408083;19;19974;-70
2023/06/03 01:20:49;;;;;;;0.38;0.30;;;11.90;99.90;;;;;;7406645;19;19927;-71
2023/06/03 01:23:28;;;;;;;0.70;0.43;;;11.90;99.90;;;;;;7408400;19;19923;-71
2023/06/03 01:25:59;;;;;;;1.00;0.50;;;11.70;99.90;;;;;;7408079;19;19922;-71
2023/06/03 01:28:30;;;;;;;1.40;0.40;;;13.70;99.90;;;;;;7409054;19;19910;-71
2023/06/03 01:31:00;;;;;;;0.20;0.10;;;11.80;99.90;;;;;;7407431;19;19919;-71
2023/06/03 01:33:31;;;;;;;0.30;0.20;;;11.70;99.90;;;;;;7408949;19;19923;-71
2023/06/03 01:36:04;;;;;;;0.20;0.20;;;11.70;99.90;;;;;;7404958;19;19940;-71
2023/06/03 01:38:36;;;;;;;0.77;0.30;;;11.60;99.90;;;;;;7408754;19;19964;-72
2023/06/03 01:41:06;;;;;;;0.40;0.30;;;11.60;99.90;;;;;;7408990;19;20277;-71
2023/06/03 01:43:35;;;;;;;0.28;0.20;;;11.40;99.90;;;;;;7405993;19;19922;-70
2023/06/03 01:46:04;;;;;;;0.20;0.20;;;11.40;99.90;;;;;;7408583;19;19922;-70
2023/06/03 01:48:34;;;;;;;0.10;0.10;;;11.20;99.90;;;;;;7407733;19;19942;-70
2023/06/03 01:51:03;;;;;;;0.90;0.10;;;11.10;99.90;;;;;;7407885;19;20005;-70
2023/06/03 01:53:35;;;;;;;0.10;0.10;;;11.10;99.90;;;;;;7406197;19;20013;-71
2023/06/03 01:56:04;;;;;;;0.20;0.20;;;11.00;99.90;;;;;;7405123;19;19928;-71
2023/06/03 01:58:35;;;;;;;0.40;0.25;;;11.10;99.90;;;;;;7405166;19;19970;-71
2023/06/03 02:01:04;;;;;;;1.13;0.20;;;11.10;99.90;;;;;;7407469;19;20297;-70
2023/06/03 02:03:33;;;;;;;0.35;0.20;;;11.00;99.90;;;;;;7406456;19;19922;-71
2023/06/03 02:06:02;;;;;;;0.10;0.10;;;11.00;99.90;;;;;;7407332;19;20401;-70
2023/06/03 02:08:31;;;;;;;0.40;0.30;;;11.00;99.90;;;;;;7406213;19;19981;-69
2023/06/03 02:11:03;;;;;;;0.43;0.25;;;10.90;99.90;;;;;;7408108;19;20029;-70
2023/06/03 02:13:32;;;;;;;0.10;0.10;;;10.90;99.90;;;;;;7406518;19;20255;-71
2023/06/03 02:16:03;;;;;;;0.20;0.10;;;10.90;99.90;;;;;;7406181;19;19923;-71
2023/06/03 02:18:32;;;;;;;0.95;0.22;;;10.90;99.90;;;;;;7404756;19;19915;-71
2023/06/03 02:21:01;;;;;;;0.57;0.20;;;10.80;99.90;;;;;;7407647;19;19928;-71
2023/06/03 02:23:30;;;;;;;0.50;0.20;;;10.90;99.90;;;;;;7408450;19;19921;-71
2023/06/03 02:26:01;;;;;;;0.30;0.30;;;10.80;99.90;;;;;;7408057;19;19919;-71
2023/06/03 02:28:33;;;;;;;0.28;0.20;;;10.80;99.90;;;;;;7405833;19;19943;-71
2023/06/03 02:31:02;;;;;;;0.20;0.10;;;10.60;99.90;;;;;;7407912;19;20325;-71
2023/06/03 02:33:31;;;;;;;0.25;0.25;;;10.70;99.90;;;;;;7406247;19;19919;-71
2023/06/03 02:36:00;;;;;;;0.13;0.10;;;10.60;99.90;;;;;;7406024;19;19925;-71
2023/06/03 02:38:29;;;;;;;0.68;0.30;;;10.60;99.90;;;;;;7405815;19;19922;-71
2023/06/03 02:40:58;;;;;;;0.22;0.20;;;10.60;99.90;;;;;;7404609;19;19918;-71
2023/06/03 02:43:27;;;;;;;1.35;0.30;;;10.40;99.90;;;;;;7407256;19;19922;-71
2023/06/03 02:45:58;;;;;;;0.32;0.20;;;10.40;99.90;;;;;;7406851;19;19922;-70
2023/06/03 02:48:27;;;;;;;;;;;10.50;99.90;;;;;;7409258;19;19915;-71
2023/06/03 02:50:56;;;;;;;0.10;0.10;;;10.40;99.90;;;;;;7404607;19;19921;-71
2023/06/03 02:53:25;;;;;;;0.65;0.10;;;10.30;99.90;;;;;;7406284;19;19919;-71
2023/06/03 02:55:55;;;;;;;0.17;0.17;;;10.40;99.90;;;;;;7403145;19;19974;-71
2023/06/03 02:58:23;;;;;;;0.20;0.20;;;10.20;99.90;;;;;;7405243;19;20264;-71
2023/06/03 03:00:52;;;;;;;0.25;0.20;;;10.10;99.90;;;;;;7404583;19;19950;-71
2023/06/03 03:03:24;;;;;;;0.20;0.10;;;10.10;99.90;;;;;;7405869;19;19918;-71
2023/06/03 03:05:54;;;;;;;0.32;0.25;;;10.30;99.90;;;;;;7404723;19;19929;-69
2023/06/03 03:08:23;;;;;;;0.35;0.22;;;10.00;99.90;;;;;;7406057;19;19933;-71
2023/06/03 03:10:52;;;;;;;0.20;0.20;;;10.20;99.90;;;;;;7404574;19;19919;-69
2023/06/03 03:13:21;;;;;;;0.10;0.10;;;10.10;99.90;;;;;;7405260;19;19919;-69
2023/06/03 03:15:50;;;;;;;0.80;0.30;;;9.90;99.90;;;;;;7403803;19;20583;-70
2023/06/03 03:18:20;;;;;;;0.38;0.30;;;9.90;99.90;;;;;;7406159;19;20258;-69
2023/06/03 03:20:52;;;;;;;0.35;0.30;;;9.90;99.90;;;;;;7404508;19;20384;-69
2023/06/03 03:23:21;;;;;;;0.13;0.10;;;9.90;99.90;;;;;;7407075;19;19978;-71
2023/06/03 03:25:49;;;;;;;0.55;0.30;;;9.80;99.90;;;;;;7404800;19;19915;-70
2023/06/03 03:28:19;;;;;;;0.68;0.32;;;9.70;99.90;;;;;;7405855;19;19914;-71
2023/06/03 03:30:49;;;;;;;0.28;0.17;;;9.80;99.90;;;;;;7405288;19;19950;-69
2023/06/03 03:33:20;;;;;;;0.40;0.15;;;9.80;99.90;;;;;;7405864;19;19914;-70
2023/06/03 03:35:52;;;;;;;0.38;0.20;;;9.80;99.90;;;;;;7404381;19;20371;-69
2023/06/03 03:38:21;;;;;;;;;;;9.60;99.90;;;;;;7407992;19;19919;-70
2023/06/03 03:40:50;;;;;;;0.77;0.22;;;9.60;99.90;;;;;;7405475;19;19925;-69
2023/06/03 03:43:21;;;;;;;0.22;0.20;;;9.60;99.90;;;;;;7403678;19;20359;-69
2023/06/03 03:45:50;;;;;;;0.30;0.20;;;9.60;99.90;;;;;;7403245;19;19933;-69
2023/06/03 03:48:19;;;;;;;0.30;0.20;;;9.70;99.90;;;;;;7406128;19;19990;-69
2023/06/03 03:50:52;;;;;;;0.47;0.10;;;9.70;99.90;;;;;;7404702;19;19981;-69
2023/06/03 03:53:23;;;;;;;1.60;0.30;;;9.70;99.90;;;;;;7403158;19;20336;-69
2023/06/03 03:55:54;;;;;;;0.30;0.20;;;9.70;99.90;;;;;;7403940;19;20333;-70
2023/06/03 03:58:28;;;;;;;0.20;0.20;;;9.60;99.90;;;;;;7403500;19;19943;-69
2023/06/03 04:01:00;;;;;;;0.40;0.30;;;9.70;99.90;;;;;;7405116;19;19928;-69
2023/06/03 04:03:35;;;;;;;0.28;0.20;;;9.70;99.90;;;;;;7403088;19;19911;-69
2023/06/03 04:06:07;;;;;;;0.20;0.17;;;9.60;99.90;;;;;;7404816;19;19918;-69
2023/06/03 04:08:43;;;;;;;0.13;0.10;;;9.70;99.90;;;;;;7403239;19;19918;-70
2023/06/03 04:11:20;;;;;;;0.10;0.10;;;9.60;99.90;;;;;;7405163;19;20262;-70
2023/06/03 04:13:49;;;;;;;;;;;9.60;99.90;;;;;;7406079;19;19924;-70
2023/06/03 04:16:49;;;;;;;0.68;0.20;;;9.70;99.90;;;;;;7400979;19;19966;-69
2023/06/03 04:19:30;;;;;;;0.20;0.10;;;9.70;99.90;;;;;;7404508;19;19952;-70
2023/06/03 04:22:02;;;;;;;1.20;0.60;;;9.80;99.90;;;;;;7403595;19;19914;-69
2023/06/03 04:24:32;;;;;;;0.50;0.10;;;10.00;99.90;;;;;;7401750;19;19914;-69
2023/06/03 04:27:02;;;;;;;0.75;0.20;;;10.00;99.90;;;;;;7403583;19;19998;-69
2023/06/03 04:29:33;;;;;;;0.30;0.20;;;10.00;99.90;;;;;;7401354;19;19942;-69
2023/06/03 04:32:02;;;;;;;0.47;0.30;;;9.90;99.90;;;;;;7403352;19;19993;-69
2023/06/03 04:34:32;;;;;;;0.47;0.30;;;10.00;99.90;;;;;;7401899;19;19941;-69
2023/06/03 04:37:03;;;;;;;0.30;0.20;;;9.90;99.90;;;;;;7401920;19;20627;-69
2023/06/03 04:39:32;;;;;;;0.32;0.30;;;10.00;99.90;;;;;;7401522;19;19995;-69
2023/06/03 04:42:02;;;;;;;1.13;0.20;;;9.90;99.90;;;;;;7406985;19;19990;-71
2023/06/03 04:44:31;;;;;;;0.30;0.28;;;9.90;99.90;;;;;;7407221;19;19993;-69
2023/06/03 04:47:00;;;;;;;0.35;0.20;;;10.00;99.90;;;;;;7413359;19;19938;-69
2023/06/03 04:49:32;;;;;;;1.48;0.50;;;10.10;99.90;;;;;;7410051;19;20270;-69
2023/06/03 04:52:04;;;;;;;0.20;0.20;;;10.10;99.90;;;;;;7412026;19;19987;-71
2023/06/03 04:54:32;;;;;;;0.25;0.20;;;10.20;99.90;;;;;;7413194;19;19910;-71
2023/06/03 04:57:01;;;;;;;0.50;0.30;;;10.20;99.90;;;;;;7409120;19;20011;-71
2023/06/03 04:59:30;;;;;;;0.20;0.10;;;10.50;99.90;;;;;;7406361;19;19922;-70
2023/06/03 05:01:59;;;;;;;0.22;0.20;;;10.20;99.90;;;;;;7410348;19;19955;-71
2023/06/03 05:04:29;;;;;;;0.47;0.30;;;10.30;99.90;;;;;;7409202;19;19986;-70
2023/06/03 05:07:00;;;;;;;0.28;0.20;;;10.40;99.90;;;;;;7410163;19;19947;-71
2023/06/03 05:09:31;;;;;;;0.40;0.30;;;10.40;99.90;;;;;;7408733;19;19910;-71
2023/06/03 05:12:01;;;;;;;1.20;0.20;;;10.50;99.90;;;;;;7408762;19;19914;-71
2023/06/03 05:14:30;;;;;;;0.35;0.20;;;10.50;99.90;;;;;;7408343;19;19915;-70
2023/06/03 05:16:59;;;;;;;0.35;0.20;;;10.70;99.90;;;;;;7405561;19;19929;-71
2023/06/03 05:19:29;;;;;;;2.25;0.35;;;10.70;99.90;;;;;;7408282;19;19919;-71
2023/06/03 05:22:00;;;;;;;0.95;0.13;;;10.70;99.90;;;;;;7409281;19;19927;-71
2023/06/03 05:24:32;;;;;;;0.28;0.13;;;10.80;99.90;;;;;;7408011;19;20400;-70
2023/06/03 05:27:01;;;;;;;0.10;0.10;;;10.70;99.90;;;;;;7410650;19;19925;-70
2023/06/03 05:29:30;;;;;;;0.40;0.25;;;10.80;99.90;;;;;;7408071;19;19918;-70
2023/06/03 05:31:59;;;;;;;0.35;0.20;;;11.00;99.90;;;;;;7407341;19;19918;-71
2023/06/03 05:34:28;;;;;;;1.38;0.35;;;11.10;99.90;;;;;;7408091;19;19929;-71
2023/06/03 05:36:57;;;;;;;0.30;0.10;;;11.20;99.90;;;;;;7405029;19;19974;-71
2023/06/03 05:39:26;;;;;;;0.22;0.20;;;11.20;99.90;;;;;;7408095;19;19922;-71
2023/06/03 05:41:57;;;;;;;0.15;0.10;;;11.20;99.90;;;;;;7406244;19;20358;-71
2023/06/03 05:44:26;;;;;;;0.57;0.25;;;11.40;99.90;;;;;;7407776;19;19993;-71
2023/06/03 05:46:55;;;;;;;0.30;0.28;;;11.40;99.90;;;;;;7409093;19;20000;-71
2023/06/03 05:49:26;;;;;;;0.32;0.20;;;11.40;99.90;;;;;;7408321;19;20033;-70
2023/06/03 05:51:56;;;;;;;0.40;0.20;;;11.50;99.90;;;;;;7406230;19;19915;-71
2023/06/03 05:54:28;;;;;;;0.47;0.17;;;11.70;99.90;;;;;;7406512;19;20376;-70
2023/06/03 05:57:00;;;;;;;0.20;0.20;;;11.50;99.90;;;;;;7405380;19;19920;-71
2023/06/03 05:59:29;;;;;;;0.20;0.20;;;11.60;99.90;;;;;;7405871;19;19953;-71
2023/06/03 06:01:58;;;;;;;0.63;0.30;;;11.70;99.90;;;;;;7406788;19;20250;-71
2023/06/03 06:04:27;;;;;;;0.20;0.17;;;11.80;99.90;;;;;;7409350;19;19939;-71
2023/06/03 06:06:56;;;;;;;0.40;0.30;;;11.80;99.90;;;;;;7406587;19;19926;-70
2023/06/03 06:09:25;;;;;;;0.38;0.10;;;11.90;99.90;;;;;;7408700;19;20563;-71
2023/06/03 06:11:54;;;;;;;0.30;0.20;;;12.00;99.90;;;;;;7404689;19;19927;-70
2023/06/03 06:14:26;;;;;;;0.30;0.20;;;12.00;99.90;;;;;;7408041;19;19996;-71
2023/06/03 06:16:55;;;;;;;;;;;12.00;99.90;;;;;;7409547;19;19934;-71
2023/06/03 06:19:25;;;;;;;0.75;0.20;;;12.10;99.90;;;;;;7408110;19;20348;-70
2023/06/03 06:21:55;;;;;;;0.28;0.17;;;12.10;99.90;;;;;;7406991;19;19935;-71
2023/06/03 06:24:24;;;;;;;0.28;0.20;;;12.00;99.90;;;;;;7405348;19;19914;-71
2023/06/03 06:26:54;;;;;;;0.50;0.20;;;12.30;99.90;;;;;;7406562;19;20493;-70
2023/06/03 06:29:23;;;;;;;1.35;0.30;;;12.20;99.90;;;;;;7405302;19;20333;-72
2023/06/03 06:31:54;;;;;;;0.10;0.10;;;12.30;99.90;;;;;;7406537;19;19923;-70
2023/06/03 06:34:29;;;;;;;0.55;0.17;;;12.50;99.90;;;;;;7404962;19;19919;-70
2023/06/03 06:36:59;;;;;;;0.30;0.30;;;12.50;99.90;;;;;;7405411;19;19967;-71
2023/06/03 06:39:50;;;;;;;0.30;0.20;;;12.60;99.90;;;;;;7405032;19;20274;-71
2023/06/03 06:42:30;;;;;;;0.88;0.20;;;12.60;99.90;;;;;;7407732;19;19919;-71
2023/06/03 06:45:00;;;;;;;0.20;0.20;;;12.60;99.90;;;;;;7405091;19;19929;-71
2023/06/03 06:47:38;;;;;;;0.55;0.20;;;12.90;99.90;;;;;;7404749;19;19924;-71
2023/06/03 06:50:10;;;;;;;0.20;0.20;;;12.90;99.90;;;;;;7406324;19;19918;-71
2023/06/03 06:52:39;;;;;;;0.17;0.10;;;13.00;99.90;;;;;;7405219;19;19920;-71
2023/06/03 06:55:25;;;;;;;0.30;0.20;;;13.10;99.90;;;;;;7406314;19;19922;-71
2023/06/03 06:57:57;;;;;;;0.10;0.10;;;13.20;99.90;;;;;;7403219;19;19915;-72
2023/06/03 07:00:26;;;;;;;0.35;0.20;;;13.40;99.90;;;;;;7407843;19;19978;-71
2023/06/03 07:02:57;;;;;;;0.00;0.00;;;13.20;99.90;;;;;;7406357;19;19918;-71
2023/06/03 07:05:26;;;;;;;0.10;0.10;;;13.30;99.90;;;;;;7407293;19;19917;-71
2023/06/03 07:07:55;;;;;;;0.10;0.10;;;13.40;99.90;;;;;;7406066;19;19922;-70
2023/06/03 07:10:25;;;;;;;0.88;0.20;;;13.40;99.90;;;;;;7404562;19;19917;-71
2023/06/03 07:12:55;;;;;;;1.15;0.10;;;13.50;99.90;;;;;;7403524;19;19925;-71
2023/06/03 07:15:25;;;;;;;0.60;0.20;;;13.60;99.90;;;;;;7404321;19;19988;-71
2023/06/03 07:17:57;;;;;;;0.28;0.15;;;13.60;99.90;;;;;;7404002;19;19986;-70
2023/06/03 07:20:32;;;;;;;0.75;0.20;;;13.80;99.90;;;;;;7405169;19;19922;-70
2023/06/03 07:23:03;;;;;;;0.40;0.20;;;13.80;99.90;;;;;;7405889;19;19922;-70
2023/06/03 07:25:38;;;;;;;0.30;0.10;;;13.70;99.90;;;;;;7404011;19;19921;-71
2023/06/03 07:28:10;;;;;;;0.20;0.20;;;13.80;99.90;;;;;;7405260;19;19982;-70
2023/06/03 07:30:40;;;;;;;0.63;0.10;;;14.10;99.90;;;;;;7405449;19;20332;-71
2023/06/03 07:33:13;;;;;;;0.40;0.10;;;14.00;99.90;;;;;;7405891;19;19939;-70
2023/06/03 07:35:42;;;;;;;0.15;0.15;;;14.00;99.90;;;;;;7404056;19;20244;-70
2023/06/03 07:38:11;;;;;;;0.30;0.20;;;14.20;99.90;;;;;;7403978;19;19918;-70
2023/06/03 07:40:44;;;;;;;0.20;0.10;;;14.30;99.90;;;;;;7404917;19;20340;-70
2023/06/03 07:43:14;;;;;;;0.40;0.20;;;14.50;99.90;;;;;;7404230;19;20088;-70
2023/06/03 07:45:43;;;;;;;0.80;0.25;;;14.50;99.90;;;;;;7403007;19;19932;-70
2023/06/03 07:48:17;;;;;;;0.20;0.20;;;14.60;99.90;;;;;;7405693;19;20392;-70
2023/06/03 07:50:48;;;;;;;0.20;0.20;;;14.70;99.90;;;;;;7404898;19;19915;-71
2023/06/03 07:53:25;;;;;;;0.20;0.10;;;14.80;99.90;;;;;;7403094;19;19922;-70
2023/06/03 07:55:54;;;;;;;0.20;0.15;;;14.80;99.90;;;;;;7404280;19;19922;-70
2023/06/03 07:58:23;;;;;;;0.30;0.20;;;14.90;99.90;;;;;;7401404;19;19927;-70
2023/06/03 08:00:54;;;;;;;0.08;0.08;;;15.10;99.90;;;;;;7404829;19;19922;-70
2023/06/03 08:03:25;;;;;;;1.65;0.17;;;15.10;99.90;;;;;;7405354;19;19918;-70
2023/06/03 08:05:55;;;;;;;0.47;0.17;;;15.20;99.90;;;;;;7404450;19;19915;-70
2023/06/03 08:08:28;;;;;;;0.70;0.10;;;15.30;99.90;;;;;;7402397;19;19960;-70
2023/06/03 08:10:57;;;;;;;1.08;0.20;;;15.50;99.90;;;;;;7404304;19;19922;-70
2023/06/03 08:13:26;;;;;;;1.20;0.20;;;15.60;99.90;;;;;;7403177;19;19922;-70
2023/06/03 08:15:55;;;;;;;0.93;0.10;;;15.80;99.90;;;;;;7402208;19;19915;-70
2023/06/03 08:18:46;;;;;;;0.35;0.20;;;15.80;99.90;;;;;;7401875;19;19982;-71
2023/06/03 08:21:16;;;;;;;0.22;0.13;;;15.80;99.90;;;;;;7401736;19;19970;-70
2023/06/03 08:23:46;;;;;;;0.15;0.15;;;16.10;99.90;;;;;;7403766;19;19921;-70
2023/06/03 08:26:14;;;;;;;0.08;0.08;;;16.30;99.90;;;;;;7401931;19;19921;-70
2023/06/03 08:28:44;;;;;;;1.52;0.10;;;16.20;99.90;;;;;;7403137;19;19975;-70
2023/06/03 08:31:13;;;;;;;0.38;0.15;;;16.50;99.90;;;;;;7403673;19;20386;-71
2023/06/03 08:33:45;;;;;;;0.10;0.10;;;16.60;99.90;;;;;;7403057;19;19962;-71
2023/06/03 08:36:14;;;;;;;0.17;0.15;;;16.70;99.90;;;;;;7403044;19;19919;-70
2023/06/03 08:38:43;;;;;;;0.28;0.10;;;16.80;99.90;;;;;;7401298;19;19954;-70
2023/06/03 08:41:13;;;;;;;0.20;0.10;;;17.10;99.90;;;;;;7402035;19;19926;-70
2023/06/03 08:43:50;;;;;;;0.10;0.10;;;17.00;99.90;;;;;;7400046;19;19978;-70
2023/06/03 08:46:25;;;;;;;2.05;0.68;;;17.10;99.90;;;;;;7401887;19;20368;-70
2023/06/03 08:49:03;;;;;;;0.50;0.10;;;17.10;99.90;;;;;;7404091;19;19922;-70
2023/06/03 08:51:41;;;;;;;0.57;0.20;;;17.00;99.90;;;;;;7402188;19;19923;-70
2023/06/03 08:54:14;;;;;;;0.10;0.10;;;17.00;99.90;;;;;;7403590;19;19918;-70
2023/06/03 08:56:46;;;;;;;0.00;0.00;;;17.10;99.90;;;;;;7402181;19;19914;-71
2023/06/03 08:59:24;;;;;;;0.90;0.38;;;17.30;99.90;;;;;;7400050;19;19922;-71
2023/06/03 09:01:57;;;;;;;0.22;0.10;;;17.50;99.90;;;;;;7403033;19;19918;-71
2023/06/03 09:04:29;;;;;;;0.00;0.00;;;17.30;99.90;;;;;;7401557;19;19918;-70
2023/06/03 09:07:01;;;;;;;0.00;0.00;;;17.40;99.90;;;;;;7403204;19;19933;-70
2023/06/03 09:09:31;;;;;;;0.35;0.10;;;17.40;99.90;;;;;;7401391;19;19914;-70
2023/06/03 09:12:01;;;;;;;0.25;0.10;;;17.60;99.70;;;;;;7399288;19;19922;-70
2023/06/03 09:14:31;;;;;;;0.00;0.00;;;17.40;99.50;;;;;;7401843;19;20345;-70
2023/06/03 09:17:02;;;;;;;0.13;0.10;;;17.20;99.60;;;;;;7402063;19;20369;-71
2023/06/03 09:19:35;;;;;;;0.30;0.20;;;17.30;99.40;;;;;;7401121;19;19982;-70
2023/06/03 09:22:04;;;;;;;0.15;0.15;;;17.00;99.50;;;;;;7400262;19;19926;-70
2023/06/03 09:24:34;;;;;;;0.98;0.20;;;17.00;99.60;;;;;;7401488;19;20275;-70
2023/06/03 09:27:04;;;;;;;1.27;0.10;;;16.90;99.60;;;;;;7401196;19;19915;-70
2023/06/03 09:29:33;;;;;;;0.08;0.05;;;16.70;99.50;;;;;;7408233;19;19915;-70
2023/06/03 09:32:02;;;;;;;0.10;0.10;;;16.70;99.70;;;;;;7407879;19;19933;-71
2023/06/03 09:34:34;;;;;;;0.35;0.10;;;16.70;99.70;;;;;;7408672;19;19974;-70
2023/06/03 09:37:09;;;;;;;0.43;0.20;;;16.80;99.70;;;;;;7407287;19;19915;-70
2023/06/03 09:39:40;;;;;;;0.25;0.20;;;16.80;99.80;;;;;;7408804;19;19930;-71
2023/06/03 09:42:10;;;;;;;0.80;0.20;;;17.60;99.90;;;;;;7406229;19;20432;-71
2023/06/03 09:44:45;;;;;;;0.10;0.10;;;17.10;99.80;;;;;;7406913;19;20321;-70
2023/06/03 09:47:15;;;;;;;0.10;0.10;;;17.30;99.70;;;;;;7407530;19;20265;-71
2023/06/03 09:50:03;;;;;;;0.20;0.17;;;17.40;99.30;;;;;;7408541;19;19915;-71
2023/06/03 09:52:36;;;;;;;0.15;0.10;;;17.80;98.50;;;;;;7408653;19;19962;-71
2023/06/03 09:55:07;;;;;;;0.10;0.10;;;17.70;99.00;;;;;;7406556;19;19922;-70
2023/06/03 09:57:36;;;;;;;1.48;0.20;;;17.90;98.90;;;;;;7406891;19;19923;-70
2023/06/03 10:00:10;;;;;;;0.57;0.10;;;17.90;98.90;;;;;;7403305;19;20340;-70
2023/06/03 10:02:40;;;;;;;0.22;0.20;;;18.00;98.80;;;;;;7408028;19;20317;-71
2023/06/03 10:05:28;;;;;;;0.20;0.20;;;18.20;98.60;;;;;;7407062;19;19986;-71
2023/06/03 10:07:57;;;;;;;1.17;0.30;;;18.30;98.60;;;;;;7405652;19;19922;-70
2023/06/03 10:10:26;;;;;;;0.10;0.10;;;18.40;98.60;;;;;;7407383;19;19919;-71
2023/06/03 10:12:55;;;;;;;0.22;0.10;;;18.60;98.40;;;;;;7406001;19;20260;-71
2023/06/03 10:15:38;;;;;;;0.38;0.30;;;18.40;98.50;;;;;;7407008;19;19986;-71
2023/06/03 10:18:07;;;;;;;0.28;0.20;;;18.70;98.00;;;;;;7404386;19;19919;-70
2023/06/03 10:20:40;;;;;;;0.25;0.10;;;18.70;97.80;;;;;;7407290;19;19943;-70
2023/06/03 10:23:11;;;;;;;0.30;0.15;;;18.80;98.10;;;;;;7405921;19;20355;-71
2023/06/03 10:25:45;;;;;;;0.88;0.20;;;19.00;98.00;;;;;;7407274;19;19929;-70
2023/06/03 10:28:14;;;;;;;0.20;0.13;;;19.00;97.70;;;;;;7406652;19;20332;-70
2023/06/03 10:30:44;;;;;;;0.30;0.15;;;19.20;97.80;;;;;;7407144;19;19925;-71
2023/06/03 10:33:13;;;;;;;2.08;0.30;;;19.10;97.80;;;;;;7405982;19;19925;-71
2023/06/03 10:35:45;;;;;;;0.20;0.10;;;19.20;97.50;;;;;;7406972;19;20009;-70
2023/06/03 10:38:15;;;;;;;0.10;0.10;;;19.40;97.40;;;;;;7404551;19;19926;-70
2023/06/03 10:40:45;;;;;;;1.45;0.20;;;19.30;97.30;;;;;;7406692;19;20321;-71
2023/06/03 10:43:15;;;;;;;0.10;0.10;;;19.40;97.10;;;;;;7405998;19;20315;-70
2023/06/03 10:45:45;;;;;;;0.00;0.00;;;19.50;97.10;;;;;;7402692;19;19991;-71
2023/06/03 10:48:16;;;;;;;0.40;0.20;;;19.60;97.40;;;;;;7406505;19;19918;-71
2023/06/03 10:51:03;;;;;;;0.50;0.10;;;19.70;97.10;;;;;;7406727;19;19918;-71
2023/06/03 10:53:47;;;;;;;0.63;0.30;;;19.90;96.70;;;;;;7406922;19;19923;-71
2023/06/03 10:56:27;;;;;;;0.03;0.03;;;19.90;96.30;;;;;;7403742;19;19918;-70
2023/06/03 10:59:02;;;;;;;;;;;20.00;96.90;;;;;;7406348;19;20274;-71
2023/06/03 11:01:58;;;;;;;0.40;0.10;;;20.10;95.80;;;;;;7405979;19;20365;-71
2023/06/03 11:04:28;;;;;;;0.85;0.10;;;20.10;95.80;;;;;;7405768;19;19929;-70
2023/06/03 11:07:02;;;;;;;0.28;0.17;;;20.30;96.60;;;;;;7406946;19;20078;-70
2023/06/03 11:09:36;;;;;;;0.77;0.20;;;20.30;96.50;;;;;;7404666;19;19922;-71
2023/06/03 11:12:09;;;;;;;0.17;0.10;;;19.50;96.40;;;;;;7402742;19;19917;-71
2023/06/03 11:14:56;;;;;;;0.45;0.10;;;20.50;96.50;;;;;;7405928;19;20355;-71
2023/06/03 11:17:29;;;;;;;1.13;0.25;;;20.60;95.30;;;;;;7404224;19;19959;-70
2023/06/03 11:20:00;;;;;;;0.13;0.13;;;20.70;96.20;;;;;;7406225;19;19943;-71
2023/06/03 11:22:47;;;;;;;0.65;0.20;;;20.70;96.20;;;;;;7405116;19;19918;-71
2023/06/03 11:25:33;;;;;;;0.35;0.13;;;20.60;95.90;;;;;;7403419;19;20487;-71
2023/06/03 11:28:35;;;;;;;1.00;0.20;;;20.80;95.30;;;;;;7404893;19;19978;-71
2023/06/03 11:31:07;;;;;;;1.17;0.10;;;21.00;95.40;;;;;;7404852;19;19918;-71
2023/06/03 11:33:36;;;;;;;0.98;0.10;;;21.10;95.80;;;;;;7404974;19;20337;-71
2023/06/03 11:36:44;;;;;;;0.15;0.10;;;21.10;95.30;;;;;;7404776;19;19943;-71
2023/06/03 11:40:02;;;;;;;0.10;0.10;;;21.10;94.30;;;;;;7401801;19;19922;-71
2023/06/03 11:42:31;;;;;;;0.28;0.20;;;21.30;94.90;;;;;;7403630;19;19929;-71
2023/06/03 11:45:28;;;;;;;0.20;0.10;;;21.50;95.30;;;;;;7402128;19;19927;-71
2023/06/03 11:47:59;;;;;;;0.15;0.10;;;21.40;94.20;;;;;;7405637;19;20532;-71
2023/06/03 11:50:29;;;;;;;0.10;0.10;;;21.50;94.80;;;;;;7402465;19;19922;-71
2023/06/03 11:52:58;;;;;;;0.90;0.13;;;21.70;94.70;;;;;;7405549;19;19922;-71
2023/06/03 11:55:31;;;;;;;0.10;0.10;;;21.70;94.70;;;;;;7404297;19;19974;-71
2023/06/03 11:58:10;;;;;;;1.20;0.20;;;21.70;94.60;;;;;;7401346;19;19921;-71
2023/06/03 12:00:40;;;;;;;0.20;0.10;;;21.80;94.00;;;;;;7402707;19;19923;-71
2023/06/03 12:03:15;;;;;;;0.25;0.20;;;22.10;94.30;;;;;;7402847;19;20428;-71
2023/06/03 12:05:55;;;;;;;0.50;0.20;;;22.00;94.10;;;;;;7404140;19;19915;-71
2023/06/03 12:08:26;;;;;;;0.10;0.10;;;22.30;94.00;;;;;;7404326;19;19919;-70
2023/06/03 12:10:57;;;;;;;0.82;0.10;;;22.40;94.00;;;;;;7404748;19;19919;-71
2023/06/03 12:13:41;;;;;;;0.28;0.20;;;22.60;93.40;;;;;;7403188;19;19935;-71
2023/06/03 12:16:09;;;;;;;;;;;22.70;93.50;;;;;;7404321;19;19921;-71
2023/06/03 12:18:39;;;;;;;0.20;0.10;;;22.70;93.40;;;;;;7402549;19;20344;-71
2023/06/03 12:21:24;;;;;;;0.10;0.10;;;22.80;93.70;;;;;;7401016;19;19918;-71
2023/06/03 12:23:53;;;;;;;0.77;0.30;;;23.00;93.60;;;;;;7403561;19;19923;-71
2023/06/03 12:26:25;;;;;;;2.08;0.30;;;23.00;93.30;;;;;;7402738;19;19974;-71
2023/06/03 12:28:55;;;;;;;0.35;0.20;;;23.00;93.30;;;;;;7403715;19;19918;-71
2023/06/03 12:31:24;;;;;;;0.20;0.20;;;22.90;93.20;;;;;;7401988;19;19919;-71
2023/06/03 12:33:54;;;;;;;0.22;0.10;;;23.10;93.10;;;;;;7403524;19;19954;-71
2023/06/03 12:36:23;;;;;;;0.20;0.10;;;23.20;93.30;;;;;;7402395;19;20273;-71
2023/06/03 12:38:59;;;;;;;0.77;0.10;;;23.30;93.00;;;;;;7402844;19;19922;-71
2023/06/03 12:41:31;;;;;;;0.20;0.13;;;23.30;93.10;;;;;;7402564;19;19932;-71
2023/06/03 12:44:04;;;;;;;0.20;0.20;;;23.30;92.70;;;;;;7401141;19;19980;-72
2023/06/03 12:46:33;;;;;;;1.02;0.35;;;23.30;92.30;;;;;;7402655;19;19946;-71
2023/06/03 12:49:15;;;;;;;0.55;0.20;;;23.30;92.50;;;;;;7401279;19;20348;-72
2023/06/03 12:51:44;;;;;;;0.52;0.20;;;23.40;92.50;;;;;;7402462;19;19919;-71
2023/06/03 12:54:15;;;;;;;0.90;0.20;;;23.50;92.60;;;;;;7402166;19;19929;-71
2023/06/03 12:56:47;;;;;;;0.20;0.20;;;23.70;92.50;;;;;;7403340;19;19986;-71
2023/06/03 12:59:16;;;;;;;0.73;0.20;;;23.80;92.40;;;;;;7400972;19;19926;-71
2023/06/03 13:01:45;;;;;;;0.55;0.20;;;23.90;92.50;;;;;;7403708;19;19925;-71
2023/06/03 13:04:14;;;;;;;0.30;0.20;;;24.10;92.40;;;;;;7408563;19;19915;-71
2023/06/03 13:06:44;;;;;;;0.20;0.10;;;24.20;92.10;;;;;;7409934;19;20463;-71
2023/06/03 13:09:13;;;;;;;0.10;0.10;;;24.40;91.90;;;;;;7409490;19;20354;-71
2023/06/03 13:11:42;;;;;;;0.63;0.20;;;24.60;91.80;;;;;;7410065;19;19929;-71
2023/06/03 13:14:13;;;;;;;0.20;0.20;;;24.70;91.90;;;;;;7408737;19;19915;-72